createdAt,value
2022-10-12T00:00:19.483Z,102191.38
2022-10-12T00:02:46.880Z,102191.88
2022-10-12T00:05:14.304Z,102200.56
2022-10-12T00:07:43.091Z,102199.09
2022-10-12T00:10:10.502Z,102201.38
2022-10-12T00:12:37.888Z,102208.91
2022-10-12T00:15:06.206Z,102207.28
2022-10-12T00:17:33.628Z,102210.09
2022-10-12T00:20:01.049Z,102211.50
2022-10-12T00:22:28.467Z,102210.88
2022-10-12T00:24:57.174Z,102207.28
2022-10-12T00:27:24.733Z,102211.16
2022-10-12T00:29:52.161Z,102214.69
2022-10-12T00:32:20.224Z,102217.06
2022-10-12T00:34:47.594Z,102219.56
2022-10-12T00:37:14.992Z,102209.59
2022-10-12T00:39:42.363Z,102211.66
2022-10-12T00:42:13.396Z,102212.59
2022-10-12T00:44:44.500Z,102210.28
2022-10-12T00:47:19.547Z,102210.56
2022-10-12T00:49:51.264Z,102216.13
2022-10-12T00:52:24.095Z,102215.53
2022-10-12T00:54:54.627Z,102223.38
2022-10-12T00:57:24.434Z,102219.72
2022-10-12T00:59:56.644Z,102224.63
2022-10-12T01:02:26.925Z,102222.03
2022-10-12T01:04:54.835Z,102218.72
2022-10-12T01:07:22.234Z,102221.56
2022-10-12T01:09:49.978Z,102218.75
2022-10-12T01:12:18.319Z,102227.22
2022-10-12T01:14:47.132Z,102218.94
2022-10-12T01:17:24.106Z,102225.13
2022-10-12T01:20:07.577Z,102222.09
2022-10-12T01:22:43.000Z,102222.66
2022-10-12T01:25:22.874Z,102232.78
2022-10-12T01:27:53.867Z,102228.22
2022-10-12T01:30:23.969Z,102218.81
2022-10-12T01:33:06.740Z,102227.47
2022-10-12T01:35:40.723Z,102224.00
2022-10-12T01:38:18.884Z,102228.75
2022-10-12T01:40:54.853Z,102232.41
2022-10-12T01:43:23.559Z,102236.84
2022-10-12T01:45:52.329Z,102233.34
2022-10-12T01:48:19.865Z,102235.00
2022-10-12T01:50:50.838Z,102229.72
2022-10-12T01:53:32.363Z,102232.63
2022-10-12T01:56:08.868Z,102228.09
2022-10-12T01:58:50.748Z,102237.63
2022-10-12T02:01:26.212Z,102231.81
2022-10-12T02:04:01.928Z,102233.91
2022-10-12T02:06:33.751Z,102224.75
2022-10-12T02:09:06.973Z,102226.09
2022-10-12T02:11:38.409Z,102223.13
2022-10-12T02:14:10.117Z,102225.19
2022-10-12T02:16:43.053Z,102219.69
2022-10-12T02:19:14.469Z,102217.56
2022-10-12T02:21:42.235Z,102219.31
2022-10-12T02:24:12.566Z,102215.50
2022-10-12T02:26:43.627Z,102219.16
2022-10-12T02:29:14.495Z,102218.25
2022-10-12T02:31:52.147Z,102213.91
2022-10-12T02:34:24.572Z,102220.47
2022-10-12T02:36:57.704Z,102213.97
2022-10-12T02:39:31.186Z,102206.16
2022-10-12T02:42:04.854Z,102207.97
2022-10-12T02:44:35.573Z,102204.16
2022-10-12T02:47:07.924Z,102208.84
2022-10-12T02:49:36.976Z,102195.38
2022-10-12T02:52:06.700Z,102198.94
2022-10-12T02:54:34.422Z,102193.50
2022-10-12T02:57:01.888Z,102195.66
2022-10-12T02:59:29.428Z,102195.97
2022-10-12T03:01:56.837Z,102189.91
2022-10-12T03:04:25.611Z,102195.69
2022-10-12T03:06:53.056Z,102199.84
2022-10-12T03:09:20.753Z,102191.88
2022-10-12T03:11:48.245Z,102194.69
2022-10-12T03:14:16.803Z,102200.31
2022-10-12T03:16:46.462Z,102197.88
2022-10-12T03:19:14.124Z,102187.66
2022-10-12T03:21:42.850Z,102194.63
2022-10-12T03:24:10.305Z,102194.16
2022-10-12T03:26:37.754Z,102194.34
2022-10-12T03:29:05.459Z,102199.28
2022-10-12T03:31:32.857Z,102194.31
2022-10-12T03:34:00.499Z,102189.28
2022-10-12T03:36:27.940Z,102192.91
2022-10-12T03:38:56.672Z,102193.41
2022-10-12T03:41:24.073Z,102185.16
2022-10-12T03:43:51.637Z,102192.03
2022-10-12T03:46:19.051Z,102193.91
2022-10-12T03:48:46.464Z,102200.06
2022-10-12T03:51:13.964Z,102192.09
2022-10-12T03:53:45.429Z,102191.06
2022-10-12T03:56:14.527Z,102191.16
2022-10-12T03:58:41.936Z,102194.69
2022-10-12T04:01:09.367Z,102194.03
2022-10-12T04:03:36.786Z,102189.38
2022-10-12T04:06:04.725Z,102198.63
2022-10-12T04:08:32.137Z,102193.63
2022-10-12T04:10:59.586Z,102199.84
2022-10-12T04:13:28.306Z,102206.25
2022-10-12T04:15:55.696Z,102202.41
2022-10-12T04:18:23.142Z,102199.38
2022-10-12T04:20:50.917Z,102196.03
2022-10-12T04:23:18.307Z,102193.13
2022-10-12T04:25:45.659Z,102204.34
2022-10-12T04:28:13.418Z,102206.72
2022-10-12T04:30:42.189Z,102200.03
2022-10-12T04:33:09.605Z,102199.84
2022-10-12T04:35:37.203Z,102195.66
2022-10-12T04:38:05.117Z,102198.16
2022-10-12T04:40:32.552Z,102200.25
2022-10-12T04:42:59.961Z,102194.06
2022-10-12T04:45:27.425Z,102201.38
2022-10-12T04:47:56.243Z,102201.47
2022-10-12T04:50:29.724Z,102209.28
2022-10-12T04:52:57.481Z,102204.44
2022-10-12T04:55:25.075Z,102206.13
2022-10-12T04:57:52.448Z,102208.25
2022-10-12T05:00:19.863Z,102212.84
2022-10-12T05:02:47.757Z,102210.13
2022-10-12T05:05:16.633Z,102207.03
2022-10-12T05:07:44.084Z,102216.38
2022-10-12T05:10:11.741Z,102210.22
2022-10-12T05:12:39.471Z,102212.31
2022-10-12T05:15:08.249Z,102205.59
2022-10-12T05:17:35.708Z,102216.34
2022-10-12T05:20:03.305Z,102209.56
2022-10-12T05:22:32.270Z,102214.88
2022-10-12T05:24:59.671Z,102208.28
2022-10-12T05:27:27.128Z,102213.97
2022-10-12T05:29:54.668Z,102213.75
2022-10-12T05:32:22.063Z,102219.31
2022-10-12T05:34:49.472Z,102219.53
2022-10-12T05:37:17.343Z,102212.16
2022-10-12T05:39:46.672Z,102218.06
2022-10-12T05:42:14.045Z,102210.66
2022-10-12T05:44:41.422Z,102213.09
2022-10-12T05:47:08.864Z,102212.06
2022-10-12T05:49:36.304Z,102215.78
2022-10-12T05:52:03.965Z,102218.81
2022-10-12T05:54:31.399Z,102217.09
2022-10-12T05:57:00.150Z,102217.78
2022-10-12T05:59:27.546Z,102215.50
2022-10-12T06:01:55.067Z,102217.63
2022-10-12T06:04:22.489Z,102216.25
2022-10-12T06:06:49.907Z,102221.63
2022-10-12T06:09:17.357Z,102222.84
2022-10-12T06:11:44.818Z,102222.38
2022-10-12T06:14:15.168Z,102224.53
2022-10-12T06:16:42.681Z,102232.19
2022-10-12T06:19:11.755Z,102232.59
2022-10-12T06:21:39.373Z,102232.59
2022-10-12T06:24:07.321Z,102235.75
2022-10-12T06:26:34.991Z,102232.00
2022-10-12T06:29:02.374Z,102232.00
2022-10-12T06:31:32.415Z,102235.34
2022-10-12T06:33:59.848Z,102243.97
2022-10-12T06:36:27.254Z,102243.34
2022-10-12T06:38:55.173Z,102228.41
2022-10-12T06:41:22.682Z,102232.53
2022-10-12T06:43:50.071Z,102231.69
2022-10-12T06:46:17.631Z,102231.81
2022-10-12T06:48:46.404Z,102239.75
2022-10-12T06:51:13.909Z,102238.00
2022-10-12T06:53:41.284Z,102236.56
2022-10-12T06:56:09.635Z,102230.16
2022-10-12T06:58:37.385Z,102228.19
2022-10-12T07:01:05.637Z,102237.88
2022-10-12T07:03:33.104Z,102236.50
2022-10-12T07:06:08.920Z,102231.31
2022-10-12T07:08:36.328Z,102230.06
2022-10-12T07:11:05.037Z,102231.53
2022-10-12T07:13:32.722Z,102235.81
2022-10-12T07:16:00.289Z,102240.28
2022-10-12T07:18:27.806Z,102245.63
2022-10-12T07:20:59.639Z,102243.03
2022-10-12T07:23:28.491Z,102241.66
2022-10-12T07:25:56.071Z,102247.84
2022-10-12T07:28:23.572Z,102248.06
2022-10-12T07:30:51.330Z,102247.25
2022-10-12T07:33:18.793Z,102241.47
2022-10-12T07:36:12.828Z,102243.50
2022-10-12T07:38:44.992Z,102241.91
2022-10-12T07:41:12.910Z,102240.34
2022-10-12T07:43:40.340Z,102242.66
2022-10-12T07:46:08.802Z,102246.00
2022-10-12T07:48:36.316Z,102238.84
2022-10-12T07:51:05.192Z,102237.91
2022-10-12T07:53:34.832Z,102244.50
2022-10-12T07:56:05.327Z,102236.63
2022-10-12T07:58:32.998Z,102230.75
2022-10-12T08:01:05.995Z,102233.22
2022-10-12T08:03:33.455Z,102236.63
2022-10-12T08:06:01.176Z,102232.97
2022-10-12T08:08:28.599Z,102233.63
2022-10-12T08:10:57.736Z,102234.00
2022-10-12T08:13:26.470Z,102229.88
2022-10-12T08:15:54.101Z,102236.91
2022-10-12T08:18:21.590Z,102231.59
2022-10-12T08:20:49.161Z,102228.41
2022-10-12T08:23:16.612Z,102228.66
2022-10-12T08:25:51.677Z,102224.78
2022-10-12T08:28:19.142Z,102226.06
2022-10-12T08:30:47.954Z,102228.63
2022-10-12T08:33:15.936Z,102227.88
2022-10-12T08:35:43.959Z,102228.69
2022-10-12T08:38:13.225Z,102230.09
2022-10-12T08:40:50.678Z,102231.88
2022-10-12T08:43:29.197Z,102231.94
2022-10-12T08:46:00.725Z,102226.22
2022-10-12T08:48:32.541Z,102224.44
2022-10-12T08:51:03.805Z,102222.06
2022-10-12T08:53:36.445Z,102225.78
2022-10-12T08:56:03.963Z,102225.91
2022-10-12T08:58:34.047Z,102233.56
2022-10-12T09:01:21.966Z,102224.38
2022-10-12T09:04:02.534Z,102219.38
2022-10-12T09:06:35.896Z,102224.47
2022-10-12T09:09:09.875Z,102206.50
2022-10-12T09:11:55.122Z,102214.38
2022-10-12T09:14:27.754Z,102217.38
2022-10-12T09:16:57.584Z,102213.81
2022-10-12T09:19:33.326Z,102215.88
2022-10-12T09:22:02.276Z,102212.94
2022-10-12T09:24:35.523Z,102206.16
2022-10-12T09:27:14.547Z,102202.94
2022-10-12T09:29:42.876Z,102206.69
2022-10-12T09:32:35.217Z,102209.13
2022-10-12T09:35:04.849Z,102207.13
2022-10-12T09:37:34.232Z,102208.19
2022-10-12T09:40:02.159Z,102188.50
2022-10-12T09:42:29.558Z,102198.78
2022-10-12T09:45:00.313Z,102191.34
2022-10-12T09:47:31.441Z,102191.69
2022-10-12T09:50:01.062Z,102183.34
2022-10-12T09:52:31.837Z,102185.25
2022-10-12T09:55:05.216Z,102182.41
2022-10-12T09:57:35.060Z,102182.59
2022-10-12T10:00:06.360Z,102186.81
2022-10-12T10:02:48.711Z,102189.13
2022-10-12T10:05:25.131Z,102184.63
2022-10-12T10:07:52.740Z,102177.03
2022-10-12T10:10:28.273Z,102188.47
2022-10-12T10:13:01.097Z,102184.84
2022-10-12T10:15:31.243Z,102180.38
2022-10-12T10:18:01.909Z,102179.66
2022-10-12T10:20:32.810Z,102180.59
2022-10-12T10:23:01.301Z,102173.81
2022-10-12T10:25:29.043Z,102172.31
2022-10-12T10:28:22.580Z,102169.50
2022-10-12T10:30:59.060Z,102178.97
2022-10-12T10:33:27.882Z,102171.59
2022-10-12T10:36:00.313Z,102170.56
2022-10-12T10:38:28.994Z,102174.97
2022-10-12T10:40:58.066Z,102172.19
2022-10-12T10:43:29.728Z,102171.34
2022-10-12T10:45:59.921Z,102173.25
2022-10-12T10:48:32.020Z,102167.28
2022-10-12T10:51:02.296Z,102170.44
2022-10-12T10:53:34.040Z,102168.06
2022-10-12T10:56:06.486Z,102159.38
2022-10-12T10:58:38.184Z,102156.31
2022-10-12T11:01:16.452Z,102153.88
2022-10-12T11:03:54.384Z,102152.47
2022-10-12T11:06:29.661Z,102154.53
2022-10-12T11:09:03.763Z,102148.59
2022-10-12T11:11:36.007Z,102148.38
2022-10-12T11:14:10.667Z,102153.53
2022-10-12T11:16:44.598Z,102141.16
2022-10-12T11:19:25.409Z,102137.13
2022-10-12T11:21:57.452Z,102136.63
2022-10-12T11:24:29.411Z,102132.03
2022-10-12T11:27:02.758Z,102118.41
2022-10-12T11:29:30.598Z,102121.53
2022-10-12T11:32:04.057Z,102113.28
2022-10-12T11:34:43.410Z,102110.81
2022-10-12T11:37:20.316Z,102114.97
2022-10-12T11:39:53.567Z,102113.19
2022-10-12T11:42:32.004Z,102111.13
2022-10-12T11:45:01.941Z,102105.94
2022-10-12T11:47:35.433Z,102102.75
2022-10-12T11:50:08.266Z,102107.75
2022-10-12T11:52:41.702Z,102105.81
2022-10-12T11:55:28.073Z,102096.06
2022-10-12T11:58:00.044Z,102096.09
2022-10-12T12:00:38.113Z,102092.69
2022-10-12T12:03:19.873Z,102089.84
2022-10-12T12:05:48.704Z,102084.88
2022-10-12T12:08:24.172Z,102075.81
2022-10-12T12:11:05.369Z,102078.06
2022-10-12T12:13:34.993Z,102075.31
2022-10-12T12:16:33.609Z,102069.91
2022-10-12T12:19:16.030Z,102072.06
2022-10-12T12:22:14.515Z,102067.50
2022-10-12T12:24:53.347Z,102069.44
2022-10-12T12:27:31.511Z,102058.53
2022-10-12T12:30:01.172Z,102067.16
2022-10-12T12:32:42.819Z,102063.22
2022-10-12T12:35:21.057Z,102063.34
2022-10-12T12:37:50.347Z,102061.41
2022-10-12T12:40:24.541Z,102062.50
2022-10-12T12:42:51.967Z,102061.56
2022-10-12T12:45:41.985Z,102061.56
2022-10-12T12:48:10.818Z,102061.41
2022-10-12T12:50:41.633Z,102056.44
2022-10-12T12:53:18.519Z,102060.84
2022-10-12T12:56:03.487Z,102056.44
2022-10-12T12:58:49.088Z,102048.50
2022-10-12T13:01:45.349Z,102048.59
2022-10-12T13:04:41.847Z,102044.13
2022-10-12T13:07:34.824Z,102044.28
2022-10-12T13:10:17.649Z,102040.63
2022-10-12T13:13:02.592Z,102037.16
2022-10-12T13:15:38.504Z,102035.59
2022-10-12T13:18:47.352Z,102032.13
2022-10-12T13:21:19.180Z,102033.50
2022-10-12T13:23:49.234Z,102024.63
2022-10-12T13:26:22.719Z,102031.63
2022-10-12T13:28:50.744Z,102026.88
2022-10-12T13:31:24.087Z,102024.38
2022-10-12T13:34:00.385Z,102023.50
2022-10-12T13:36:30.175Z,102026.19
2022-10-12T13:38:59.528Z,102024.31
2022-10-12T13:41:31.294Z,102018.28
2022-10-12T13:44:00.648Z,102020.09
2022-10-12T13:46:41.637Z,102018.31
2022-10-12T13:49:17.834Z,102023.53
2022-10-12T13:51:48.408Z,102017.47
2022-10-12T13:54:18.601Z,102013.94
2022-10-12T13:56:49.055Z,102016.31
2022-10-12T13:59:19.792Z,102011.31
2022-10-12T14:01:53.031Z,102007.78
2022-10-12T14:04:20.821Z,102004.97
2022-10-12T14:06:53.899Z,102001.31
2022-10-12T14:09:25.062Z,101998.75
2022-10-12T14:11:55.444Z,101995.22
2022-10-12T14:14:29.336Z,101995.44
2022-10-12T14:16:56.807Z,101992.19
2022-10-12T14:19:34.363Z,101986.16
2022-10-12T14:22:03.438Z,101997.50
2022-10-12T14:24:31.616Z,101988.78
2022-10-12T14:27:02.736Z,101982.81
2022-10-12T14:29:35.710Z,101987.78
2022-10-12T14:32:05.630Z,101981.28
2022-10-12T14:34:42.400Z,101979.03
2022-10-12T14:37:36.848Z,101974.47
2022-10-12T14:40:35.476Z,101963.22
2022-10-12T14:43:08.035Z,101968.16
2022-10-12T14:45:35.509Z,101965.16
2022-10-12T14:48:04.974Z,101969.50
2022-10-12T14:50:33.296Z,101967.03
2022-10-12T14:53:04.412Z,101963.41
2022-10-12T14:55:34.983Z,101962.56
2022-10-12T14:58:03.643Z,101958.88
2022-10-12T15:00:34.878Z,101959.13
2022-10-12T15:03:02.820Z,101956.63
2022-10-12T15:05:32.520Z,101950.53
2022-10-12T15:08:00.693Z,101949.53
2022-10-12T15:10:29.167Z,101952.28
2022-10-12T15:12:56.686Z,101949.41
2022-10-12T15:15:31.450Z,101944.34
2022-10-12T15:18:00.530Z,101953.69
2022-10-12T15:20:29.658Z,101954.44
2022-10-12T15:22:57.471Z,101937.41
2022-10-12T15:25:29.060Z,101942.59
2022-10-12T15:27:56.508Z,101942.59
2022-10-12T15:30:23.894Z,101932.06
2022-10-12T15:32:51.315Z,101935.56
2022-10-12T15:35:23.857Z,101930.53
2022-10-12T15:37:52.173Z,101937.47
2022-10-12T15:40:21.513Z,101934.69
2022-10-12T15:42:49.098Z,101933.31
2022-10-12T15:45:19.788Z,101930.44
2022-10-12T15:47:47.884Z,101929.47
2022-10-12T15:50:16.339Z,101924.25
2022-10-12T15:52:45.349Z,101929.47
2022-10-12T15:55:16.700Z,101924.41
2022-10-12T15:57:44.288Z,101920.97
2022-10-12T16:00:13.384Z,101915.81
2022-10-12T16:02:41.163Z,101920.03
2022-10-12T16:05:17.519Z,101930.25
2022-10-12T16:07:46.464Z,101922.69
2022-10-12T16:10:15.362Z,101922.66
2022-10-12T16:12:44.708Z,101930.09
2022-10-12T16:15:13.692Z,101922.56
2022-10-12T16:17:41.475Z,101925.84
2022-10-12T16:20:10.724Z,101924.16
2022-10-12T16:22:38.713Z,101916.09
2022-10-12T16:25:10.255Z,101914.56
2022-10-12T16:27:38.454Z,101915.31
2022-10-12T16:30:07.636Z,101920.59
2022-10-12T16:32:35.169Z,101913.78
2022-10-12T16:35:02.736Z,101927.50
2022-10-12T16:37:30.234Z,101925.94
2022-10-12T16:39:57.802Z,101919.13
2022-10-12T16:42:26.733Z,101923.59
2022-10-12T16:44:54.137Z,101915.97
2022-10-12T16:47:22.003Z,101910.53
2022-10-12T16:49:49.492Z,101917.22
2022-10-12T16:52:17.132Z,101919.59
2022-10-12T16:54:44.716Z,101920.66
2022-10-12T16:57:12.137Z,101913.84
2022-10-12T16:59:40.862Z,101918.72
2022-10-12T17:02:08.510Z,101917.97
2022-10-12T17:04:35.956Z,101913.97
2022-10-12T17:07:03.409Z,101921.63
2022-10-12T17:09:30.967Z,101918.16
2022-10-12T17:11:58.592Z,101923.50
2022-10-12T17:14:26.091Z,101912.19
2022-10-12T17:16:57.444Z,101914.66
2022-10-12T17:19:31.848Z,101913.78
2022-10-12T17:22:00.897Z,101911.19
2022-10-12T17:24:30.327Z,101911.94
2022-10-12T17:26:58.262Z,101915.47
2022-10-12T17:29:27.902Z,101916.19
2022-10-12T17:31:57.927Z,101910.91
2022-10-12T17:34:27.242Z,101922.19
2022-10-12T17:36:56.365Z,101919.59
2022-10-12T17:39:25.060Z,101917.59
2022-10-12T17:41:53.118Z,101919.19
2022-10-12T17:44:20.826Z,101916.81
2022-10-12T17:46:49.616Z,101909.00
2022-10-12T17:49:24.474Z,101901.09
2022-10-12T17:51:52.476Z,101911.34
2022-10-12T17:54:20.921Z,101906.13
2022-10-12T17:56:48.697Z,101901.94
2022-10-12T17:59:19.151Z,101902.81
2022-10-12T18:01:47.337Z,101908.75
2022-10-12T18:04:14.892Z,101906.88
2022-10-12T18:06:44.048Z,101904.44
2022-10-12T18:09:11.951Z,101899.44
2022-10-12T18:11:39.830Z,101901.25
2022-10-12T18:14:09.772Z,101897.75
2022-10-12T18:16:38.387Z,101905.22
2022-10-12T18:19:07.674Z,101893.38
2022-10-12T18:21:35.530Z,101888.94
2022-10-12T18:24:07.336Z,101888.94
2022-10-12T18:26:36.433Z,101887.94
2022-10-12T18:29:05.145Z,101890.41
2022-10-12T18:31:32.558Z,101890.03
2022-10-12T18:33:59.974Z,101894.56
2022-10-12T18:36:28.615Z,101888.59
2022-10-12T18:38:56.127Z,101885.03
2022-10-12T18:41:26.180Z,101885.94
2022-10-12T18:43:57.763Z,101882.38
2022-10-12T18:46:26.821Z,101878.75
2022-10-12T18:48:54.369Z,101882.38
2022-10-12T18:51:24.933Z,101876.34
2022-10-12T18:53:52.340Z,101889.31
2022-10-12T18:56:21.231Z,101890.09
2022-10-12T18:58:50.228Z,101880.34
2022-10-12T19:01:19.937Z,101878.66
2022-10-12T19:03:48.127Z,101875.31
2022-10-12T19:06:18.153Z,101883.06
2022-10-12T19:08:47.587Z,101876.13
2022-10-12T19:11:17.555Z,101870.22
2022-10-12T19:13:45.695Z,101867.53
2022-10-12T19:16:17.159Z,101863.16
2022-10-12T19:18:44.644Z,101868.13
2022-10-12T19:21:14.113Z,101871.66
2022-10-12T19:23:42.231Z,101864.75
2022-10-12T19:26:11.998Z,101873.56
2022-10-12T19:28:39.796Z,101864.84
2022-10-12T19:31:09.859Z,101863.09
2022-10-12T19:33:39.120Z,101867.31
2022-10-12T19:36:08.248Z,101866.28
2022-10-12T19:38:35.952Z,101865.53
2022-10-12T19:41:03.945Z,101870.63
2022-10-12T19:43:33.287Z,101860.31
2022-10-12T19:46:03.382Z,101866.19
2022-10-12T19:48:30.897Z,101864.34
2022-10-12T19:51:01.385Z,101866.84
2022-10-12T19:53:29.233Z,101860.31
2022-10-12T19:55:59.951Z,101858.81
2022-10-12T19:58:27.473Z,101852.78
2022-10-12T20:01:01.876Z,101846.59
2022-10-12T20:03:29.631Z,101852.69
2022-10-12T20:05:57.184Z,101844.53
2022-10-12T20:08:25.945Z,101849.00
2022-10-12T20:10:53.956Z,101847.25
2022-10-12T20:13:21.598Z,101842.81
2022-10-12T20:15:52.918Z,101848.81
2022-10-12T20:18:20.812Z,101847.03
2022-10-12T20:20:48.812Z,101846.22
2022-10-12T20:23:16.584Z,101849.25
2022-10-12T20:25:46.861Z,101843.56
2022-10-12T20:28:14.619Z,101847.75
2022-10-12T20:30:42.892Z,101846.97
2022-10-12T20:33:11.181Z,101846.63
2022-10-12T20:35:38.597Z,101835.56
2022-10-12T20:38:06.013Z,101842.56
2022-10-12T20:40:33.422Z,101841.38
2022-10-12T20:43:06.235Z,101838.03
2022-10-12T20:45:35.107Z,101826.16
2022-10-12T20:48:02.574Z,101827.97
2022-10-12T20:50:30.113Z,101825.31
2022-10-12T20:53:00.954Z,101827.88
2022-10-12T20:55:28.477Z,101823.22
2022-10-12T20:57:56.195Z,101828.50
2022-10-12T21:00:25.209Z,101820.88
2022-10-12T21:02:52.698Z,101820.00
2022-10-12T21:05:20.317Z,101817.19
2022-10-12T21:07:47.957Z,101813.88
2022-10-12T21:10:15.419Z,101815.56
2022-10-12T21:12:42.834Z,101808.56
2022-10-12T21:15:11.464Z,101805.03
2022-10-12T21:17:40.176Z,101811.94
2022-10-12T21:20:08.760Z,101799.06
2022-10-12T21:22:36.202Z,101800.53
2022-10-12T21:25:03.810Z,101799.81
2022-10-12T21:27:31.312Z,101802.44
2022-10-12T21:29:58.696Z,101813.63
2022-10-12T21:32:26.170Z,101815.69
2022-10-12T21:34:54.893Z,101812.66
2022-10-12T21:37:22.485Z,101808.50
2022-10-12T21:39:54.374Z,101807.63
2022-10-12T21:42:22.044Z,101805.59
2022-10-12T21:44:51.157Z,101824.59
2022-10-12T21:47:18.637Z,101826.84
2022-10-12T21:49:46.165Z,101827.34
2022-10-12T21:52:15.056Z,101825.28
2022-10-12T21:54:42.766Z,101824.28
2022-10-12T21:57:11.359Z,101822.88
2022-10-12T21:59:38.749Z,101820.06
2022-10-12T22:02:06.307Z,101809.84
2022-10-12T22:04:34.238Z,101825.22
2022-10-12T22:07:01.621Z,101818.78
2022-10-12T22:09:33.708Z,101826.53
2022-10-12T22:12:01.097Z,101821.81
2022-10-12T22:14:28.545Z,101821.63
2022-10-12T22:16:56.029Z,101807.78
2022-10-12T22:19:23.813Z,101804.19
2022-10-12T22:21:52.692Z,101799.97
2022-10-12T22:24:20.984Z,101791.47
2022-10-12T22:26:50.067Z,101793.16
2022-10-12T22:29:17.484Z,101794.88
2022-10-12T22:31:46.307Z,101792.59
2022-10-12T22:34:13.842Z,101801.31
2022-10-12T22:36:41.347Z,101790.47
2022-10-12T22:39:08.764Z,101794.72
2022-10-12T22:41:36.165Z,101790.66
2022-10-12T22:44:05.130Z,101791.50
2022-10-12T22:46:32.578Z,101793.00
2022-10-12T22:49:00.725Z,101792.88
2022-10-12T22:51:31.930Z,101787.03
2022-10-12T22:53:59.781Z,101784.28
2022-10-12T22:56:27.255Z,101772.22
2022-10-12T22:58:55.831Z,101773.84
2022-10-12T23:01:25.181Z,101772.81
2022-10-12T23:03:53.015Z,101775.69
2022-10-12T23:06:20.943Z,101776.31
2022-10-12T23:08:48.987Z,101764.53
2022-10-12T23:11:18.749Z,101771.41
2022-10-12T23:13:48.073Z,101770.75
2022-10-12T23:16:18.131Z,101771.22
2022-10-12T23:18:47.075Z,101768.84
2022-10-12T23:21:16.473Z,101767.75
2022-10-12T23:23:45.817Z,101760.31
2022-10-12T23:26:14.998Z,101765.53
2022-10-12T23:28:42.610Z,101764.16
2022-10-12T23:31:12.190Z,101765.97
2022-10-12T23:33:39.834Z,101755.75
2022-10-12T23:36:10.939Z,101764.56
2022-10-12T23:38:40.209Z,101767.09
2022-10-12T23:41:08.089Z,101761.72
2022-10-12T23:43:36.073Z,101761.88
2022-10-12T23:46:04.389Z,101763.50
2022-10-12T23:48:32.221Z,101756.50
2022-10-12T23:50:59.725Z,101753.63
2022-10-12T23:53:29.254Z,101766.41
2022-10-12T23:55:56.799Z,101765.22
2022-10-12T23:58:24.200Z,101757.97
